Time;durP1;ratioP1;P1;durP2;ratioP2;P2;SDS_P1;SDS_P2;PMS_P1;PMS_P2;Temp;Humidity;BMP_temperature;BMP_pressure;BME280_temperature;BME280_humidity;BME280_pressure;Samples;Min_cycle;Max_cycle;Signal;HPM_P1;HPM_P2
2022/05/11 00:05:24;;;;;;;27.55;15.45;;;;;;;8.78;66.82;99218.56;4182148;83;21011;-79
2022/05/11 00:11:27;;;;;;;23.65;15.28;;;;;;;8.69;67.00;99211.13;4182815;83;21080;-80
2022/05/11 00:17:29;;;;;;;21.87;13.40;;;;;;;8.62;67.23;99210.19;4179243;84;21064;-80
2022/05/11 00:23:31;;;;;;;27.58;16.17;;;;;;;8.59;68.18;99202.16;4181999;82;21048;-80
2022/05/11 00:29:34;;;;;;;25.35;13.30;;;;;;;8.48;67.68;99194.31;4185590;84;22319;-80
2022/05/11 00:35:35;;;;;;;21.97;13.75;;;;;;;8.38;68.37;99183.16;4185227;82;21614;-80
2022/05/11 00:41:42;;;;;;;22.87;14.50;;;;;;;8.34;69.14;99185.80;4185948;84;21043;-80
2022/05/11 00:48:00;;;;;;;17.98;13.13;;;;;;;8.38;69.61;99185.30;4173698;84;21086;-80
2022/05/11 00:54:05;;;;;;;25.62;12.65;;;;;;;8.48;70.03;99184.77;4190239;83;21042;-79
2022/05/11 01:00:13;;;;;;;24.47;14.58;;;;;;;8.68;69.78;99191.02;4222504;83;20994;-80
2022/05/11 01:06:15;;;;;;;25.68;13.98;;;;;;;8.51;69.58;99187.34;4231514;83;20987;-79
2022/05/11 01:12:19;;;;;;;25.40;13.35;;;;;;;8.42;70.35;99189.48;4226044;83;21019;-80
2022/05/11 01:18:24;;;;;;;27.13;13.85;;;;;;;8.15;70.30;99182.98;4226319;83;21086;-80
2022/05/11 01:24:41;;;;;;;31.82;15.98;;;;;;;7.91;69.83;99178.52;4224129;81;21621;-78
2022/05/11 01:30:48;;;;;;;29.42;14.33;;;;;;;7.83;69.81;99183.58;4224815;83;21482;-79
2022/05/11 01:36:53;;;;;;;23.07;13.48;;;;;;;7.73;70.43;99181.40;4221681;83;21988;-80
2022/05/11 01:42:54;;;;;;;42.93;17.82;;;;;;;7.66;71.31;99173.03;4227986;83;20998;-79
2022/05/11 01:48:56;;;;;;;29.85;14.70;;;;;;;7.71;72.01;99165.16;4222589;83;20963;-79
2022/05/11 01:54:57;;;;;;;24.12;12.82;;;;;;;7.78;72.70;99160.67;4230828;83;21560;-79
2022/05/11 02:00:59;;;;;;;21.82;12.93;;;;;;;7.85;73.07;99158.70;4233003;81;21150;-80
2022/05/11 02:13:21;;;;;;;21.77;12.37;;;;;;;7.79;73.28;99156.82;4221373;83;21081;-79
2022/05/11 02:19:23;;;;;;;22.62;12.37;;;;;;;7.72;73.06;99157.22;4226552;81;21046;-80
2022/05/11 02:25:24;;;;;;;25.90;12.70;;;;;;;7.56;73.37;99153.70;4227402;82;21086;-80
2022/05/11 02:31:26;;;;;;;32.73;13.05;;;;;;;7.47;73.98;99149.77;4226099;83;21051;-79
2022/05/11 02:37:28;;;;;;;18.73;12.23;;;;;;;7.45;73.61;99139.02;4228371;83;21070;-80
2022/05/11 02:43:29;;;;;;;21.40;12.13;;;;;;;7.46;73.91;99127.77;4225245;83;22044;-79
2022/05/11 02:49:31;;;;;;;15.75;9.65;;;;;;;7.40;74.56;99136.55;4235108;83;21356;-80
2022/05/11 02:55:32;;;;;;;20.88;11.12;;;;;;;7.46;75.06;99128.33;4217596;83;21044;-80
2022/05/11 03:01:34;;;;;;;16.95;9.83;;;;;;;7.57;74.85;99128.03;4183242;82;21019;-79
2022/05/11 03:07:36;;;;;;;15.65;10.13;;;;;;;7.50;74.61;99138.17;4181123;82;21039;-80
2022/05/11 03:13:38;;;;;;;25.43;11.57;;;;;;;7.28;74.91;99133.91;4174830;84;21027;-79
2022/05/11 03:19:39;;;;;;;38.40;15.55;;;;;;;7.17;75.11;99136.33;4182078;83;21106;-80
2022/05/11 03:25:41;;;;;;;44.33;16.37;;;;;;;7.14;75.64;99141.70;4180100;84;21058;-80
2022/05/11 03:34:36;;;;;;;27.52;12.23;;;;;;;7.18;75.81;99134.41;4173862;84;21035;-80
2022/05/11 03:37:45;;;;;;;26.25;12.35;;;;;;;7.15;75.73;99127.74;4176018;84;21054;-80
2022/05/11 03:43:46;;;;;;;21.23;11.28;;;;;;;7.08;76.03;99126.17;4180459;84;21071;-81
2022/05/11 03:49:48;;;;;;;16.07;9.78;;;;;;;7.06;76.56;99125.75;4173806;84;21615;-81
2022/05/11 03:55:49;;;;;;;20.80;11.88;;;;;;;7.21;77.53;99122.81;4177068;84;21050;-81
2022/05/11 04:01:50;;;;;;;19.65;9.48;;;;;;;7.39;77.50;99123.48;4179536;84;20984;-81
2022/05/11 04:07:52;;;;;;;20.10;11.03;;;;;;;7.61;78.05;99127.56;4249142;84;20976;-80
2022/05/11 04:13:54;;;;;;;16.97;11.00;;;;;;;7.76;77.87;99121.30;4192484;82;63362;-80
2022/05/11 04:19:55;;;;;;;14.28;9.13;;;;;;;7.93;78.31;99127.18;4205110;83;21070;-81
2022/05/11 04:25:57;;;;;;;17.52;9.18;;;;;;;8.25;78.50;99127.14;4216145;82;21107;-81
2022/05/11 04:31:59;;;;;;;13.90;8.00;;;;;;;8.59;78.39;99120.86;4206871;82;21067;-80
2022/05/11 04:38:06;;;;;;;16.00;9.10;;;;;;;9.00;78.04;99120.94;4220896;82;21077;-80
2022/05/11 04:44:08;;;;;;;16.02;9.45;;;;;;;9.42;77.79;99119.55;4203713;83;21038;-79
2022/05/11 04:50:12;;;;;;;14.78;9.88;;;;;;;9.73;77.40;99122.59;4175846;84;20976;-80
2022/05/11 04:56:14;;;;;;;16.25;9.13;;;;;;;9.97;77.00;99121.64;4220515;83;21452;-81
2022/05/11 05:02:22;;;;;;;22.77;8.18;;;;;;;10.23;77.01;99131.80;4148288;84;21039;-80
2022/05/11 05:08:23;;;;;;;15.78;7.53;;;;;;;10.48;76.71;99124.16;4227092;83;21027;-79
2022/05/11 05:14:24;;;;;;;14.63;8.48;;;;;;;10.78;76.72;99124.14;4229914;82;21022;-79
2022/05/11 05:20:25;;;;;;;16.25;7.90;;;;;;;11.08;76.58;99131.75;4146062;84;21079;-80
2022/05/11 05:26:27;;;;;;;14.85;8.38;;;;;;;11.41;76.43;99139.13;4235007;83;21049;-79
2022/05/11 05:32:38;;;;;;;21.68;10.35;;;;;;;11.77;76.22;99141.87;4146000;84;20987;-79
2022/05/11 05:38:41;;;;;;;18.37;10.15;;;;;;;12.03;75.98;99132.08;4225967;83;20987;-81
2022/05/11 05:44:43;;;;;;;23.77;9.85;;;;;;;12.34;75.86;99131.50;4225299;83;21015;-82
2022/05/11 05:50:45;;;;;;;24.65;10.72;;;;;;;12.68;75.82;99124.62;4152836;84;21589;-80
2022/05/11 05:56:46;;;;;;;20.40;10.20;;;;;;;13.05;76.01;99120.29;4212396;83;21056;-79
2022/05/11 06:02:47;;;;;;;19.80;7.28;;;;;;;13.43;76.03;99115.48;4233225;82;21082;-80
2022/05/11 06:08:49;;;;;;;21.50;8.80;;;;;;;13.83;75.76;99112.36;4236568;82;21077;-80
2022/05/11 06:14:53;;;;;;;19.67;8.28;;;;;;;14.31;75.48;99111.95;4229652;82;21056;-80
2022/05/11 06:20:56;;;;;;;17.00;5.90;;;;;;;14.78;75.14;99115.55;4129945;85;21103;-80
2022/05/11 06:26:57;;;;;;;17.35;5.55;;;;;;;15.27;74.61;99118.05;4232531;82;21603;-80
2022/05/11 06:33:00;;;;;;;8.98;4.62;;;;;;;15.71;74.07;99121.56;4234551;83;21110;-80
2022/05/11 06:39:02;;;;;;;7.70;4.22;;;;;;;16.15;73.22;99112.69;4232671;83;21057;-81
2022/05/11 06:45:05;;;;;;;16.32;5.17;;;;;;;16.61;72.75;99121.34;4125715;85;21058;-82
2022/05/11 06:51:07;;;;;;;22.50;7.20;;;;;;;17.07;72.70;99119.38;4125381;85;22056;-81
2022/05/11 07:03:28;;;;;;;14.73;6.87;;;;;;;18.08;71.38;99103.85;4126981;85;21654;-82
2022/05/11 07:09:32;;;;;;;15.25;6.10;;;;;;;18.51;70.88;99106.84;4044638;86;21024;-81
2022/05/11 07:15:34;;;;;;;21.35;6.60;;;;;;;18.93;69.99;99099.69;4096295;86;21282;-80
2022/05/11 07:21:36;;;;;;;14.07;6.12;;;;;;;19.39;69.34;99086.99;4127239;85;20999;-82
2022/05/11 07:27:38;;;;;;;11.97;6.50;;;;;;;20.03;68.35;99091.19;4117654;85;21015;-80
2022/05/11 07:33:39;;;;;;;16.20;6.85;;;;;;;20.71;67.18;99095.76;4119064;85;21058;-81
2022/05/11 07:39:40;;;;;;;7.10;3.42;;;;;;;21.33;66.18;99092.38;4140575;85;21053;-80
2022/05/11 07:45:42;;;;;;;10.75;4.10;;;;;;;22.04;64.43;99086.71;4123033;84;21649;-81
2022/05/11 07:51:46;;;;;;;10.88;4.28;;;;;;;22.58;62.22;99090.05;4127133;85;21062;-81
2022/05/11 08:04:08;;;;;;;9.95;4.58;;;;;;;23.27;60.17;99074.72;4191978;83;21105;-81
2022/05/11 08:10:14;;;;;;;5.47;3.85;;;;;;;23.47;58.38;99073.72;4140571;83;21091;-81
2022/05/11 08:16:18;;;;;;;7.22;3.58;;;;;;;23.72;58.82;99065.73;4141084;84;21403;-81
2022/05/11 08:22:19;;;;;;;6.95;3.30;;;;;;;23.96;56.19;99057.73;4229917;83;21133;-82
2022/05/11 08:28:24;;;;;;;4.70;2.85;;;;;;;24.27;55.17;99051.42;4262530;82;21045;-81
2022/05/11 08:34:25;;;;;;;3.98;2.87;;;;;;;24.48;54.07;99050.48;4239877;82;21041;-82
2022/05/11 08:40:38;;;;;;;7.58;2.52;;;;;;;24.53;52.34;99050.48;4136877;84;21578;-83
2022/05/11 08:47:01;;;;;;;7.10;2.47;;;;;;;24.53;52.60;99045.67;4201474;82;21105;-83
2022/05/11 08:53:09;;;;;;;6.58;2.77;;;;;;;24.86;51.69;99051.41;4140547;84;21059;-80
2022/05/11 08:59:22;;;;;;;7.33;2.98;;;;;;;24.97;49.38;99048.11;4213023;83;21034;-82
2022/05/11 09:05:29;;;;;;;3.60;2.27;;;;;;;25.17;47.84;99042.14;4205066;82;21133;-81
2022/05/11 09:11:47;;;;;;;;;;;;;;;25.17;47.84;99042.14;4214404;82;21091;-82
2022/05/11 09:17:49;;;;;;;3.62;2.33;;;;;;;25.66;47.46;99033.41;4250336;83;20712;-80
2022/05/11 09:24:11;;;;;;;8.05;2.70;;;;;;;26.32;44.92;99034.88;4208746;82;21067;-82
2022/05/11 09:30:23;;;;;;;8.78;2.80;;;;;;;27.09;43.45;99032.11;4148610;84;21039;-81
2022/05/11 09:36:41;;;;;;;7.35;2.62;;;;;;;27.84;42.99;99029.48;4233583;82;21041;-81
2022/05/11 09:42:52;;;;;;;3.10;2.27;;;;;;;28.55;43.18;99031.70;4209079;83;21082;-82
2022/05/11 09:49:05;;;;;;;3.12;2.00;;;;;;;29.23;41.43;99029.81;4227593;82;21090;-82
2022/05/11 09:55:31;;;;;;;4.15;2.22;;;;;;;29.57;40.41;99025.22;4199020;82;21027;-81
2022/05/11 10:01:33;;;;;;;5.55;2.00;;;;;;;30.01;40.08;99015.60;4199467;83;21083;-82
2022/05/11 10:08:04;;;;;;;6.20;2.08;;;;;;;30.49;37.90;99018.52;4204891;83;20987;-82
2022/05/11 10:27:37;;;;;;;5.50;2.37;;;;;;;30.33;35.30;99021.30;4197273;82;21046;-82
2022/05/11 10:34:19;;;;;;;3.22;2.75;;;;;;;29.67;35.76;99019.52;4063316;85;21064;-82
2022/05/11 10:40:51;;;;;;;5.62;2.62;;;;;;;30.23;35.27;99012.91;4119537;85;21410;-81
2022/05/11 10:47:35;;;;;;;7.50;2.50;;;;;;;30.27;33.06;99012.80;4122140;84;21011;-82
2022/05/11 10:53:46;;;;;;;6.70;2.50;;;;;;;30.49;33.55;99005.05;4184583;84;21048;-82
2022/05/11 11:00:09;;;;;;;11.65;3.33;;;;;;;31.04;32.91;98998.74;4142913;84;21362;-83
2022/05/11 11:13:38;;;;;;;4.17;2.30;;;;;;;31.78;31.90;98996.23;4136162;84;21006;-82
2022/05/11 11:19:45;;;;;;;6.60;2.52;;;;;;;31.22;30.56;98991.92;4196342;83;21613;-82
2022/05/11 11:26:07;;;;;;;6.75;2.17;;;;;;;31.04;31.38;98995.91;4134941;84;21050;-82
2022/05/11 11:32:21;;;;;;;4.75;2.22;;;;;;;31.56;31.67;98989.20;4137574;84;21621;-83
2022/05/11 11:38:46;;;;;;;5.37;2.67;;;;;;;31.33;31.19;98990.53;4189050;83;20995;-83
2022/05/11 11:44:47;;;;;;;7.58;2.22;;;;;;;31.06;31.24;98974.31;4137387;84;21127;-82
2022/05/11 11:50:57;;;;;;;3.10;2.30;;;;;;;30.73;30.36;98981.98;4141448;84;21138;-82
2022/05/11 11:57:01;;;;;;;3.62;2.30;;;;;;;30.17;31.19;98984.64;4142211;84;21111;-81
2022/05/11 12:03:04;;;;;;;3.33;2.58;;;;;;;29.95;30.77;98982.35;4207720;83;21065;-83
2022/05/11 12:15:33;;;;;;;8.05;2.33;;;;;;;29.17;31.04;98962.77;4140612;84;21170;-82
2022/05/11 12:21:37;;;;;;;8.33;2.52;;;;;;;28.92;30.65;98972.80;4138914;84;21574;-82
2022/05/11 12:27:39;;;;;;;5.83;2.30;;;;;;;28.97;31.15;98955.80;4142087;84;21074;-82
2022/05/11 12:33:47;;;;;;;3.52;2.30;;;;;;;28.88;31.21;98953.91;4214543;83;21863;-82
2022/05/11 12:39:56;;;;;;;4.72;2.12;;;;;;;29.03;32.50;98943.92;4192112;83;21035;-82
2022/05/11 12:46:04;;;;;;;5.03;2.60;;;;;;;29.00;31.47;98932.25;4233113;83;20986;-83
2022/05/11 12:52:08;;;;;;;6.28;2.62;;;;;;;28.72;31.14;98932.00;4201861;83;21022;-82
2022/05/11 12:58:28;;;;;;;5.92;2.30;;;;;;;28.76;31.24;98912.85;4207761;82;21087;-81
2022/05/11 13:04:30;;;;;;;5.12;2.55;;;;;;;28.99;31.87;98908.92;4197141;83;21094;-83
2022/05/11 13:10:35;;;;;;;5.35;2.52;;;;;;;29.12;30.21;98904.93;4199208;83;21104;-82
2022/05/11 13:16:36;;;;;;;7.60;2.33;;;;;;;28.95;30.88;98907.61;4178417;83;21050;-82
2022/05/11 13:22:38;;;;;;;3.77;2.10;;;;;;;28.87;30.76;98898.85;4154565;83;21056;-82
2022/05/11 13:29:00;;;;;;;5.12;2.50;;;;;;;28.97;32.26;98895.97;4195329;83;22004;-81
2022/05/11 13:35:34;;;;;;;8.20;2.30;;;;;;;28.85;31.20;98896.38;4154746;84;21935;-80
2022/05/11 13:41:53;;;;;;;4.22;2.30;;;;;;;28.97;30.42;98896.63;4193679;83;22061;-82
2022/05/11 13:48:13;;;;;;;3.22;2.15;;;;;;;29.03;29.63;98873.47;4195437;82;21451;-82
2022/05/11 13:54:30;;;;;;;3.52;2.40;;;;;;;28.81;30.19;98873.31;4088811;86;21066;-81
2022/05/11 14:00:31;;;;;;;4.72;2.33;;;;;;;28.46;31.34;98868.50;4139453;83;21780;-81
2022/05/11 14:06:37;;;;;;;6.03;2.50;;;;;;;28.39;31.51;98862.72;4138381;85;21497;-83
2022/05/11 14:12:38;;;;;;;5.78;2.40;;;;;;;28.08;30.95;98860.48;4048023;85;21540;-81
2022/05/11 14:18:46;;;;;;;3.27;2.25;;;;;;;28.10;31.13;98860.73;4148693;84;21816;-81
2022/05/11 14:24:47;;;;;;;6.58;2.47;;;;;;;28.03;31.02;98855.56;4143711;85;21539;-82
2022/05/11 14:30:49;;;;;;;4.45;2.30;;;;;;;27.80;30.98;98845.31;4138939;84;22190;-81
2022/05/11 14:36:53;;;;;;;4.50;2.37;;;;;;;27.63;31.40;98840.14;4148940;85;21069;-82
2022/05/11 14:42:55;;;;;;;3.25;2.50;;;;;;;27.40;31.28;98834.24;4138543;85;21573;-82
2022/05/11 14:48:57;;;;;;;5.30;2.40;;;;;;;27.33;31.30;98833.87;4132623;85;21062;-81
2022/05/11 14:54:58;;;;;;;3.92;2.33;;;;;;;27.14;32.29;98830.53;4140419;85;21485;-84
2022/05/11 15:07:22;;;;;;;6.15;2.60;;;;;;;27.18;31.93;98821.28;4156102;83;22014;-82
2022/05/11 15:13:30;;;;;;;5.35;2.60;;;;;;;27.07;32.66;98828.15;4170478;83;21124;-82
2022/05/11 15:19:33;;;;;;;6.45;2.35;;;;;;;26.85;32.34;98827.83;4173379;83;21742;-82
2022/05/11 15:25:34;;;;;;;4.10;1.87;;;;;;;26.50;32.57;98824.18;4179344;84;21047;-79
2022/05/11 15:31:36;;;;;;;5.87;2.62;;;;;;;26.22;32.98;98819.39;4172735;84;21019;-80
2022/05/11 15:37:37;;;;;;;5.12;2.47;;;;;;;26.06;33.08;98812.98;4168839;84;21584;-80
2022/05/11 15:43:39;;;;;;;5.28;2.37;;;;;;;25.98;34.43;98806.18;4181109;84;21021;-80
2022/05/11 15:49:40;;;;;;;3.77;2.87;;;;;;;26.01;35.10;98804.48;4170330;84;21634;-81
2022/05/11 15:55:42;;;;;;;5.08;2.42;;;;;;;25.98;34.32;98803.38;4176533;83;21071;-80
2022/05/11 16:01:44;;;;;;;3.27;2.42;;;;;;;25.83;34.01;98808.21;4158436;83;21141;-82
2022/05/11 16:07:46;;;;;;;6.40;2.58;;;;;;;25.69;34.20;98800.55;4139187;85;21123;-81
2022/05/11 16:13:48;;;;;;;5.67;2.30;;;;;;;25.57;34.18;98796.00;4025401;84;10000058;-81
2022/05/11 16:19:52;;;;;;;6.05;2.77;;;;;;;25.53;34.20;98797.41;4145201;84;21083;-81
2022/05/11 16:25:56;;;;;;;6.22;2.75;;;;;;;25.25;35.87;98783.45;4132398;85;22021;-81
2022/05/11 16:31:57;;;;;;;6.15;3.00;;;;;;;24.89;37.67;98788.67;4141040;84;21546;-80
2022/05/11 16:37:59;;;;;;;8.65;2.95;;;;;;;24.67;37.37;98779.02;4139608;84;21373;-81
2022/05/11 16:44:01;;;;;;;5.12;2.95;;;;;;;24.53;37.63;98776.25;4136461;84;21540;-81
2022/05/11 16:50:06;;;;;;;6.10;3.12;;;;;;;24.22;39.27;98783.53;4129055;85;21037;-81
2022/05/11 16:56:07;;;;;;;6.25;3.17;;;;;;;24.08;38.95;98777.83;4073371;86;21078;-81
2022/05/11 17:02:09;;;;;;;9.08;3.52;;;;;;;23.82;39.18;98781.58;4215939;82;21913;-81
2022/05/11 17:08:11;;;;;;;7.92;3.15;;;;;;;23.60;39.24;98780.98;4140825;84;21056;-80
2022/05/11 17:14:13;;;;;;;11.22;5.47;;;;;;;23.41;39.06;98785.05;4143349;84;21027;-81
2022/05/11 17:20:14;;;;;;;20.35;5.50;;;;;;;23.22;40.03;98775.84;4209158;83;21042;-80
2022/05/11 17:26:16;;;;;;;19.00;7.25;;;;;;;23.15;39.82;98781.73;4202824;83;21121;-82
2022/05/11 17:32:17;;;;;;;10.43;4.47;;;;;;;22.99;39.96;98782.66;4198991;83;21520;-81
2022/05/11 17:38:20;;;;;;;13.28;4.90;;;;;;;22.86;39.85;98774.42;4165160;84;21445;-82
2022/05/11 17:44:21;;;;;;;11.88;5.35;;;;;;;22.80;40.03;98781.83;4080141;87;21114;-81
2022/05/11 17:50:23;;;;;;;12.28;5.17;;;;;;;22.65;40.34;98785.66;4206777;83;21062;-81
2022/05/11 17:56:25;;;;;;;6.78;4.58;;;;;;;22.50;40.62;98788.84;4202259;83;21086;-81
2022/05/11 18:02:26;;;;;;;8.55;4.83;;;;;;;22.28;40.98;98787.53;4155785;83;21082;-81
2022/05/11 18:08:28;;;;;;;11.80;5.20;;;;;;;22.09;41.35;98792.06;4142343;84;21611;-80
2022/05/11 18:14:29;;;;;;;18.73;6.08;;;;;;;21.84;41.73;98788.83;4084838;83;9999691;-81
2022/05/11 18:20:35;;;;;;;10.78;5.75;;;;;;;21.54;42.38;98795.88;4214369;82;21852;-83
2022/05/11 18:26:37;;;;;;;9.65;5.53;;;;;;;21.23;43.09;98794.21;4201081;83;21059;-80
2022/05/11 18:32:38;;;;;;;11.30;5.75;;;;;;;20.92;44.11;98800.23;4145697;84;21058;-80
2022/05/11 18:38:41;;;;;;;18.12;6.28;;;;;;;20.64;44.69;98800.53;4208883;83;20980;-80
2022/05/11 18:44:43;;;;;;;9.93;6.00;;;;;;;20.41;45.03;98807.05;4143275;84;21066;-82
2022/05/11 18:50:45;;;;;;;9.75;5.42;;;;;;;20.16;45.70;98805.83;4141736;84;21086;-80
2022/05/11 18:56:46;;;;;;;9.88;5.90;;;;;;;19.99;46.11;98814.05;4202141;82;21038;-81
2022/05/11 19:02:49;;;;;;;10.48;5.90;;;;;;;19.85;46.52;98823.41;4094311;84;21034;-80
2022/05/11 19:08:50;;;;;;;9.63;6.90;;;;;;;19.66;47.24;98823.73;4154359;84;21026;-80
2022/05/11 19:14:52;;;;;;;10.20;6.60;;;;;;;19.49;47.58;98831.16;3964819;83;10000168;-80
2022/05/11 19:20:54;;;;;;;11.90;8.33;;;;;;;19.28;48.10;98829.73;4162442;83;20979;-80
2022/05/11 19:26:55;;;;;;;13.98;7.78;;;;;;;19.19;48.39;98829.55;4166197;83;21072;-80
2022/05/11 19:32:57;;;;;;;12.03;8.13;;;;;;;19.25;48.57;98829.19;4161461;84;21078;-80
2022/05/11 19:38:58;;;;;;;12.50;8.95;;;;;;;19.49;48.36;98828.39;4158072;84;21027;-80
2022/05/11 19:45:00;;;;;;;11.28;8.25;;;;;;;19.52;48.79;98824.73;4076826;86;21116;-81
2022/05/11 19:51:02;;;;;;;18.23;11.65;;;;;;;19.60;48.67;98826.89;4157231;84;21076;-80
2022/05/11 19:57:05;;;;;;;15.58;9.00;;;;;;;19.52;48.83;98821.36;4124316;85;20995;-80
2022/05/11 20:03:08;;;;;;;10.65;6.25;;;;;;;19.33;49.20;98819.50;4110696;85;21098;-79
2022/05/11 20:09:12;;;;;;;13.03;8.15;;;;;;;19.15;49.67;98833.04;4064561;86;22026;-80
2022/05/11 20:15:14;;;;;;;11.68;7.30;;;;;;;19.02;50.02;98824.45;4101882;85;21007;-79
2022/05/11 20:21:17;;;;;;;11.55;7.67;;;;;;;18.82;50.80;98819.62;4202364;83;21066;-80
2022/05/11 20:27:18;;;;;;;12.47;9.30;;;;;;;18.69;51.24;98825.08;4206262;83;20991;-80
2022/05/11 20:39:38;;;;;;;10.68;7.28;;;;;;;18.63;51.12;98826.21;3961995;86;21638;-79
2022/05/11 20:45:42;;;;;;;10.13;7.62;;;;;;;18.49;51.47;98823.78;4140635;84;21015;-79
2022/05/11 20:51:44;;;;;;;12.47;8.30;;;;;;;18.35;51.84;98817.12;4228430;83;21889;-78
2022/05/11 20:57:47;;;;;;;9.65;7.25;;;;;;;18.21;52.83;98816.05;4207622;83;21030;-80
2022/05/11 21:03:49;;;;;;;11.08;7.70;;;;;;;18.04;53.06;98809.53;4129493;85;21027;-80
2022/05/11 21:09:51;;;;;;;9.68;6.83;;;;;;;17.89;53.14;98809.64;4133528;85;21011;-80
2022/05/11 21:15:53;;;;;;;10.32;7.03;;;;;;;17.71;53.81;98814.78;4134950;85;21167;-80
2022/05/11 21:21:54;;;;;;;15.88;9.25;;;;;;;17.63;54.42;98813.36;4206718;83;21039;-80
2022/05/11 21:27:58;;;;;;;12.65;7.72;;;;;;;17.53;54.91;98815.12;4145450;84;21106;-80
2022/05/11 21:33:59;;;;;;;12.25;7.80;;;;;;;17.38;55.11;98810.27;4134402;85;21039;-80
2022/05/11 21:40:01;;;;;;;10.72;7.28;;;;;;;17.31;56.50;98805.64;4130424;84;21098;-79
2022/05/11 21:46:03;;;;;;;12.15;8.05;;;;;;;17.21;56.78;98806.02;4071055;86;21062;-80
2022/05/11 21:52:05;;;;;;;15.35;8.93;;;;;;;17.09;57.56;98804.47;4128253;85;21461;-80
2022/05/11 21:58:13;;;;;;;20.75;10.68;;;;;;;16.96;57.79;98800.77;4130323;85;21077;-80
2022/05/11 22:04:15;;;;;;;39.58;18.52;;;;;;;16.83;58.78;98801.98;4130909;84;21136;-80
2022/05/11 22:10:18;;;;;;;29.57;13.38;;;;;;;16.75;59.29;98799.15;4130779;84;21460;-80
2022/05/11 22:16:20;;;;;;;19.67;10.82;;;;;;;16.64;59.70;98793.60;4128417;84;21161;-79
2022/05/11 22:22:22;;;;;;;16.23;9.90;;;;;;;16.52;60.05;98785.91;4131785;84;21175;-79
2022/05/11 22:28:24;;;;;;;20.25;10.05;;;;;;;16.40;60.09;98792.77;4128828;84;21008;-80
2022/05/11 22:34:25;;;;;;;21.15;10.82;;;;;;;16.35;60.84;98782.18;4085946;86;21133;-80
2022/05/11 22:40:27;;;;;;;20.23;10.15;;;;;;;16.27;61.14;98780.72;4093018;85;21067;-79
2022/05/11 22:46:28;;;;;;;21.33;11.70;;;;;;;16.20;61.58;98779.46;4123935;84;21013;-79
2022/05/11 22:52:30;;;;;;;18.27;9.80;;;;;;;16.20;61.82;98775.31;4069773;85;21074;-79
2022/05/11 22:58:33;;;;;;;18.60;10.88;;;;;;;16.23;62.55;98773.09;4058427;85;21004;-79
2022/05/11 23:04:35;;;;;;;14.58;7.20;;;;;;;16.21;62.73;98775.48;4165572;84;21146;-78
2022/05/11 23:10:38;;;;;;;16.00;9.25;;;;;;;16.06;62.59;98775.53;4189541;83;21074;-79
2022/05/11 23:16:40;;;;;;;19.57;8.73;;;;;;;15.78;62.49;98773.16;4191405;83;21043;-79
2022/05/11 23:22:41;;;;;;;64.75;19.87;;;;;;;15.62;62.61;98771.00;4165097;84;21092;-80
2022/05/11 23:28:43;;;;;;;51.48;19.15;;;;;;;15.53;62.67;98768.55;4162554;84;21546;-79
2022/05/11 23:34:45;;;;;;;38.25;14.87;;;;;;;15.42;63.29;98769.27;4190932;83;21593;-78
2022/05/11 23:40:46;;;;;;;21.35;9.65;;;;;;;15.31;63.57;98766.62;4193549;83;21522;-80
2022/05/11 23:46:47;;;;;;;26.77;12.90;;;;;;;15.19;63.76;98757.48;4162721;84;21543;-79
2022/05/11 23:52:49;;;;;;;64.37;23.52;;;;;;;15.08;63.94;98760.95;4190071;83;22267;-79
2022/05/11 23:58:51;;;;;;;44.50;16.00;;;;;;;14.96;64.21;98760.68;4192058;83;21515;-79
